Архив погоды в Волжской ГМО

Метеограмма Волжская ГМО
Пятница, 20 Апреля
Время местн. Темп Ветер Видим Явления Облачность нижн/средн/верх Атм. давл. Влжн Точка росы ВНГО R Сост. почвы Tg s
Напр Скр Прв ур.ст ур.м изм
12:00 +6.5° С,С-З 5 11 более 50 км - переменная облачность 750 759 +0.5 40% -6.2° более 2.5 км - - - -
09:00 +6.5° С 2 4 50 км - переменная облачность 749 759 +1.1 55% -1.9° более 2.5 км - - - -
06:00 +2.6° С 2 6 более 50 км - ясно 748 758 +1.4 66% -3° более 2.5 км 0 Влажная (без луж) -1° -
03:00 +4.5° С,С-В 2 4 10 км - ясно 747 756 +1.1 56% -3.6° более 2.5 км - - - -
00:00 +3.7° С-В 1 3 10 км - ясно 746 755 +0.5 87% +1.7° более 2.5 км - - - -
Четверг, 19 Апреля
Время местн. Темп Ветер Видим Явления Облачность нижн/средн/верх Атм. давл. Влжн Точка росы ВНГО R Сост. почвы Tg s
Напр Скр Прв ур.ст ур.м изм
21:00 +5.3° С 1 3 10 км небо без изменений {дождь} переменная облачность 745 755 +0.9 92% +4.1° более 2.5 км - - - -
18:00 +8.1° С-В 1 3 10 км небо без изменений {дождь} облачно 744 753 +0.4 89% +6.4° 600 м - - - -
15:00 +6.5° С-В 2 8 10 км слабый непрерывный дождь облачно 744 753 +0.5 91% +5.1° 600 м - - - -
12:00 +6.1° С,С-В 3 7 20 км слабый непрерывный дождь облачно 743 753 +0.5 80% +3° 600 м - - - -
09:00 +5.9° С-В 2 7 20 км - облачно 743 752 -0.8 64% -0.4° 600 м - - - -
06:00 +4.4° С-В 2 5 20 км - облачно 744 753 -1.3 64% -1.7° 600 м - Влажная (без луж) - -
03:00 +5.8° С-В 2 5 10 км - облачно 745 754 -1.4 55% -2.5° 600 м - - - -
00:00 +8.7° С,С-В 2 5 10 км - облачно 746 756 -1.7 50% -1.2° 600 м - - - -
Среда, 18 Апреля
Время местн. Темп Ветер Видим Явления Облачность нижн/средн/верх Атм. давл. Влжн Точка росы ВНГО R Сост. почвы Tg s
Напр Скр Прв ур.ст ур.м изм
21:00 +9.8° В 1 4 10 км небо без изменений {ливневые осадки} облачно 748 757 -0.9 50% -0.2° 600 м - - - -
18:00 +12.3° В 1 6 20 км ливневый дождь преимущественно облачно 749 758 -0.9 48% +1.5° 600 м 0 - - -
15:00 +14.2° В 3 5 20 км - облачно 750 759 -0.8 39% +0.6° 600 м - - - -
12:00 +11.9° В,Ю-В 2 6 20 км - облачно 751 760 -0.5 42% -0.5° более 2.5 км - - - -
09:00 +9.5° Ю-В 2 2 20 км - облачно 751 761 -0.6 49% -0.7° - - - - -
06:00 +5.8° В 1 3 более 50 км - преимущественно облачно 752 761 -0.8 58% -1.8° более 2.5 км 0 - - -
03:00 +6.2° В,Ю-В 1 1 10 км - преимущественно облачно 752 762 -0.2 59% -1.3° более 2.5 км - - - -
00:00 +7.4° В 1 3 10 км - переменная облачность 753 762 -0.3 56% -0.7° более 2.5 км - - - -
Вторник, 17 Апреля
Время местн. Темп Ветер Видим Явления Облачность нижн/средн/верх Атм. давл. Влжн Точка росы ВНГО R Сост. почвы Tg s
Напр Скр Прв ур.ст ур.м изм
21:00 +11.2° штиль 0 0 10 км - преимущественно облачно 753 762 +0.5 50% +1.1° более 2.5 км - - - -
18:00 +17° С,С-В 2 3 50 км - преимущественно облачно 752 762 -0.4 27% -2.2° - - - - -
15:00 +18.1° С 1 3 более 50 км - переменная облачность 753 762 -0.4 27% -1.2° более 2.5 км - - - -
12:00 +16.5° З 1 2 50 км - ясно 753 762 -0.2 24% -4.1° более 2.5 км - - - -
09:00 +11.4° штиль 0 1 более 50 км - ясно 753 763 +0.2 51% +1.5° более 2.5 км - - - -